createdAt,value
2022-12-19T00:02:08.782Z,20.77
2022-12-19T00:05:17.971Z,22.02
2022-12-19T00:08:17.680Z,21.08
2022-12-19T00:11:03.670Z,23.85
2022-12-19T00:14:01.493Z,20.90
2022-12-19T00:17:18.460Z,20.27
2022-12-19T00:20:18.824Z,21.70
2022-12-19T00:23:18.344Z,21.17
2022-12-19T00:29:13.842Z,22.23
2022-12-19T00:35:02.618Z,19.90
2022-12-19T00:37:49.445Z,20.90
2022-12-19T00:40:44.479Z,21.40
2022-12-19T00:43:37.701Z,20.48
2022-12-19T00:46:37.891Z,26.25
2022-12-19T00:52:26.335Z,21.83
2022-12-19T00:55:28.334Z,22.40
2022-12-19T00:58:47.341Z,21.75
2022-12-19T01:02:55.494Z,20.42
2022-12-19T01:06:05.342Z,19.25
2022-12-19T01:09:02.349Z,21.90
2022-12-19T01:14:35.278Z,23.98
2022-12-19T01:17:44.380Z,23.42
2022-12-19T01:24:28.475Z,26.75
2022-12-19T01:27:17.129Z,21.00
2022-12-19T01:30:04.569Z,20.80
2022-12-19T01:36:42.991Z,21.38
2022-12-19T01:39:28.271Z,21.95
2022-12-19T01:42:05.338Z,22.73
2022-12-19T01:44:47.107Z,22.38
2022-12-19T01:47:20.960Z,21.95
2022-12-19T01:52:56.511Z,21.40
2022-12-19T01:55:31.658Z,20.67
2022-12-19T02:05:06.547Z,22.92
2022-12-19T02:07:53.570Z,23.13
2022-12-19T02:16:40.076Z,21.33
2022-12-19T02:20:03.326Z,19.95
2022-12-19T02:23:28.566Z,26.17
2022-12-19T02:26:34.447Z,21.30
2022-12-19T02:29:26.173Z,21.13
2022-12-19T02:32:11.651Z,21.38
2022-12-19T02:35:10.407Z,20.83
2022-12-19T02:38:10.476Z,21.35
2022-12-19T02:40:55.485Z,21.48
2022-12-19T02:43:33.759Z,21.48
2022-12-19T02:46:15.093Z,20.85
2022-12-19T02:48:49.598Z,21.42
2022-12-19T02:51:29.049Z,19.48
2022-12-19T02:54:02.217Z,20.80
2022-12-19T02:56:51.086Z,20.67
2022-12-19T02:59:50.718Z,21.38
2022-12-19T03:02:40.015Z,21.30
2022-12-19T03:05:35.522Z,19.63
2022-12-19T03:08:30.904Z,21.02
2022-12-19T03:11:10.046Z,19.30
2022-12-19T03:14:06.587Z,20.13
2022-12-19T03:16:38.549Z,20.05
2022-12-19T03:19:14.741Z,18.85
2022-12-19T03:21:52.323Z,19.10
2022-12-19T03:24:25.376Z,19.13
2022-12-19T03:27:01.661Z,18.80
2022-12-19T03:29:45.794Z,19.35
2022-12-19T03:32:30.575Z,18.45
2022-12-19T03:35:11.799Z,18.60
2022-12-19T03:40:22.495Z,15.55
2022-12-19T03:43:12.670Z,19.83
2022-12-19T03:46:17.879Z,33.17
2022-12-19T03:51:57.784Z,27.13
2022-12-19T03:55:17.192Z,21.95
2022-12-19T04:01:17.583Z,20.88
2022-12-19T04:04:00.363Z,21.98
2022-12-19T04:06:36.677Z,23.80
2022-12-19T04:09:17.988Z,25.35
2022-12-19T04:12:16.177Z,23.70
2022-12-19T04:14:54.609Z,23.25
2022-12-19T04:18:08.212Z,22.65
2022-12-19T04:20:49.495Z,21.60
2022-12-19T04:23:35.619Z,21.98
2022-12-19T04:26:21.026Z,23.63
2022-12-19T04:29:05.404Z,23.15
2022-12-19T04:31:52.426Z,22.80
2022-12-19T04:34:45.515Z,21.95
2022-12-19T04:37:34.627Z,22.92
2022-12-19T04:40:16.183Z,22.02
2022-12-19T04:42:54.582Z,21.33
2022-12-19T04:45:58.980Z,22.83
2022-12-19T04:48:28.403Z,25.17
2022-12-19T04:51:09.101Z,23.05
2022-12-19T04:53:39.288Z,24.00
2022-12-19T04:56:19.877Z,21.95
2022-12-19T04:58:51.171Z,21.50
2022-12-19T05:01:24.223Z,22.50
2022-12-19T05:04:04.414Z,24.13
2022-12-19T05:06:49.702Z,23.00
2022-12-19T05:09:22.201Z,22.35
2022-12-19T05:11:55.410Z,21.05
2022-12-19T05:14:35.136Z,22.95
2022-12-19T05:17:17.353Z,23.80
2022-12-19T05:19:51.371Z,22.05
2022-12-19T05:22:21.985Z,21.27
2022-12-19T05:24:54.404Z,22.77
2022-12-19T05:27:29.079Z,21.40
2022-12-19T05:29:59.641Z,21.08
2022-12-19T05:32:44.276Z,21.17
2022-12-19T05:38:31.386Z,22.27
2022-12-19T05:41:23.275Z,22.00
2022-12-19T05:44:09.245Z,21.67
2022-12-19T05:49:25.847Z,22.30
2022-12-19T05:51:59.506Z,21.17
2022-12-19T05:54:33.410Z,21.00
2022-12-19T05:57:09.971Z,21.35
2022-12-19T05:59:42.394Z,19.60
2022-12-19T06:02:25.190Z,19.48
2022-12-19T06:05:11.922Z,20.90
2022-12-19T06:07:53.913Z,20.70
2022-12-19T06:13:07.555Z,19.30
2022-12-19T06:15:41.768Z,21.10
2022-12-19T06:18:16.534Z,20.38
2022-12-19T06:20:55.347Z,20.45
2022-12-19T06:23:33.411Z,20.38
2022-12-19T06:26:14.264Z,19.08
2022-12-19T06:28:57.032Z,21.33
2022-12-19T06:34:47.220Z,18.40
2022-12-19T06:37:25.412Z,19.98
2022-12-19T06:40:01.553Z,20.55
2022-12-19T06:42:31.554Z,21.45
2022-12-19T06:45:01.836Z,21.42
2022-12-19T06:47:38.549Z,23.13
2022-12-19T06:50:12.882Z,20.23
2022-12-19T06:52:49.279Z,20.83
2022-12-19T06:55:27.069Z,20.40
2022-12-19T06:58:01.010Z,20.85
2022-12-19T07:00:36.489Z,23.15
2022-12-19T07:03:10.717Z,22.13
2022-12-19T07:05:43.897Z,22.25
2022-12-19T07:08:23.629Z,21.02
2022-12-19T07:10:56.185Z,25.55
2022-12-19T07:13:37.008Z,20.83
2022-12-19T07:16:11.011Z,21.38
2022-12-19T07:22:19.389Z,20.02
2022-12-19T07:25:01.122Z,20.75
2022-12-19T07:28:00.297Z,19.70
2022-12-19T07:33:22.017Z,19.40
2022-12-19T07:36:00.664Z,21.05
2022-12-19T07:38:34.332Z,20.13
2022-12-19T07:41:07.323Z,19.70
2022-12-19T07:51:33.556Z,19.48
2022-12-19T08:33:00.541Z,22.75
2022-12-19T08:39:15.477Z,23.80
2022-12-19T08:47:58.654Z,21.63
2022-12-19T08:55:58.948Z,23.00
2022-12-19T08:58:29.371Z,21.45
2022-12-19T09:01:14.434Z,23.52
2022-12-19T09:03:57.976Z,22.27
2022-12-19T09:06:41.209Z,21.45
2022-12-19T09:09:12.112Z,20.77
2022-12-19T09:11:41.110Z,21.58
2022-12-19T09:14:20.471Z,22.52
2022-12-19T09:16:52.498Z,22.40
2022-12-19T09:19:21.972Z,21.40
2022-12-19T09:21:54.849Z,21.35
2022-12-19T09:24:27.178Z,22.27
2022-12-19T09:30:40.374Z,22.58
2022-12-19T09:36:15.866Z,20.90
2022-12-19T09:42:44.460Z,21.77
2022-12-19T09:46:07.478Z,21.50
2022-12-19T09:51:56.940Z,22.70
2022-12-19T09:55:30.898Z,22.58
2022-12-19T10:07:16.201Z,25.20
2022-12-19T10:10:03.970Z,26.45
2022-12-19T10:12:38.374Z,25.58
2022-12-19T10:14:59.798Z,25.92
2022-12-19T10:18:10.372Z,26.50
2022-12-19T10:20:46.077Z,25.23
2022-12-19T10:23:23.557Z,25.58
2022-12-19T10:26:11.453Z,26.30
2022-12-19T10:29:09.427Z,26.40
2022-12-19T10:34:47.139Z,27.48
2022-12-19T10:37:35.258Z,27.90
2022-12-19T10:41:07.690Z,27.67
2022-12-19T10:44:37.622Z,26.83
2022-12-19T10:56:37.403Z,32.83
2022-12-19T10:59:22.325Z,35.00
2022-12-19T11:02:00.758Z,33.35
2022-12-19T11:04:36.984Z,33.28
2022-12-19T11:24:21.305Z,35.13
2022-12-19T11:29:18.091Z,35.08
2022-12-19T11:54:08.612Z,36.92
2022-12-19T12:00:05.805Z,35.75
2022-12-19T12:02:57.260Z,37.28
2022-12-19T12:19:49.964Z,39.33
2022-12-19T12:24:07.053Z,39.92
2022-12-19T12:47:16.233Z,36.72
2022-12-19T14:07:41.605Z,30.95
2022-12-19T14:11:34.802Z,31.20
2022-12-19T14:13:49.660Z,32.83
2022-12-19T14:16:18.625Z,31.45
2022-12-19T14:18:50.620Z,32.63
2022-12-19T14:24:20.011Z,32.95
2022-12-19T14:28:26.720Z,31.80
2022-12-19T14:30:29.874Z,32.83
2022-12-19T14:33:45.423Z,31.70
2022-12-19T14:36:07.016Z,33.83
2022-12-19T14:39:26.417Z,32.40
2022-12-19T14:41:55.988Z,31.83
2022-12-19T14:54:10.125Z,32.00
2022-12-19T14:54:13.167Z,33.30
2022-12-19T14:54:23.894Z,30.55
2022-12-19T14:54:25.032Z,31.50
2022-12-19T14:56:54.223Z,32.05
2022-12-19T14:59:05.667Z,31.83
2022-12-19T15:01:37.447Z,32.42
2022-12-19T15:04:48.923Z,32.85
2022-12-19T15:07:11.835Z,32.00
2022-12-19T15:11:06.149Z,32.28
2022-12-19T15:14:50.791Z,31.58
2022-12-19T15:16:23.583Z,30.30
2022-12-19T15:18:53.369Z,30.52
2022-12-19T15:21:20.902Z,30.67
2022-12-19T15:23:48.069Z,31.27
2022-12-19T15:26:27.742Z,31.33
2022-12-19T15:28:56.974Z,31.20
2022-12-19T15:31:42.518Z,31.55
2022-12-19T15:34:52.028Z,31.15
2022-12-19T15:37:19.893Z,30.10
2022-12-19T15:39:47.430Z,31.42
2022-12-19T15:42:26.305Z,31.33
2022-12-19T15:44:55.928Z,31.27
2022-12-19T15:47:36.336Z,31.95
2022-12-19T15:50:32.589Z,25.93
2022-12-19T15:53:02.589Z,38.28
2022-12-19T15:55:31.044Z,43.17
2022-12-19T15:58:05.653Z,38.75
2022-12-19T16:00:36.371Z,43.67
2022-12-19T16:15:29.201Z,36.08
2022-12-19T16:19:26.776Z,42.15
2022-12-19T16:25:34.132Z,40.33
2022-12-19T16:40:02.339Z,39.45
2022-12-19T16:42:39.677Z,41.25
2022-12-19T16:45:18.629Z,40.83
2022-12-19T16:47:51.707Z,42.03
2022-12-19T16:50:34.148Z,42.72
2022-12-19T16:53:04.113Z,46.20
2022-12-19T17:01:51.258Z,43.17
2022-12-19T17:04:53.938Z,44.63
2022-12-19T17:08:30.450Z,40.92
2022-12-19T17:11:06.838Z,38.88
2022-12-19T17:19:46.412Z,41.05
2022-12-19T17:22:18.094Z,38.80
2022-12-19T17:34:39.716Z,41.45
2022-12-19T17:37:20.599Z,42.05
2022-12-19T18:03:29.448Z,41.35
2022-12-19T18:08:39.184Z,30.88
2022-12-19T18:11:35.387Z,43.28
2022-12-19T18:14:05.964Z,48.83
2022-12-19T18:19:25.532Z,40.42
2022-12-19T18:21:52.722Z,42.58
2022-12-19T18:24:19.908Z,41.55
2022-12-19T18:26:47.063Z,43.00
2022-12-19T18:29:19.916Z,42.47
2022-12-19T18:31:50.925Z,40.80
2022-12-19T18:34:24.288Z,42.10
2022-12-19T18:36:59.797Z,42.58
2022-12-19T18:42:23.805Z,50.55
2022-12-19T18:44:54.271Z,50.33
2022-12-19T18:50:14.499Z,45.08
2022-12-19T18:52:44.488Z,44.13
2022-12-19T18:55:23.623Z,43.58
2022-12-19T18:57:50.924Z,45.15
2022-12-19T19:00:22.629Z,43.83
2022-12-19T19:03:14.758Z,41.83
2022-12-19T19:08:26.361Z,43.70
2022-12-19T19:11:04.119Z,41.05
2022-12-19T19:13:32.583Z,42.45
2022-12-19T19:16:02.373Z,44.67
2022-12-19T19:18:35.565Z,42.20
2022-12-19T19:21:09.751Z,38.85
2022-12-19T19:23:47.123Z,42.63
2022-12-19T19:26:18.888Z,41.53
2022-12-19T19:28:52.015Z,42.47
2022-12-19T19:31:23.459Z,42.22
2022-12-19T19:33:55.515Z,42.03
2022-12-19T19:38:55.283Z,41.65
2022-12-19T19:41:30.209Z,43.75
2022-12-19T19:44:00.518Z,45.33
2022-12-19T19:46:28.518Z,47.20
2022-12-19T19:48:57.380Z,57.42
2022-12-19T19:51:31.449Z,48.00
2022-12-19T19:54:06.247Z,42.88
2022-12-19T19:56:34.312Z,40.05
2022-12-19T19:59:01.354Z,39.88
2022-12-19T20:04:12.630Z,41.25
2022-12-19T20:06:40.556Z,39.75
2022-12-19T20:09:09.101Z,39.83
2022-12-19T20:14:21.740Z,39.42
2022-12-19T20:16:53.060Z,38.00
2022-12-19T20:19:25.224Z,39.65
2022-12-19T20:24:57.987Z,39.45
2022-12-19T20:27:33.168Z,38.92
2022-12-19T20:30:26.499Z,40.25
2022-12-19T20:33:20.262Z,40.45
2022-12-19T20:35:55.312Z,39.05
2022-12-19T20:38:22.244Z,42.78
2022-12-19T20:40:51.619Z,43.03
2022-12-19T20:43:18.833Z,40.95
2022-12-19T20:48:34.054Z,41.83
2022-12-19T20:51:07.999Z,39.47
2022-12-19T20:53:36.475Z,41.03
2022-12-19T20:56:45.227Z,42.97
2022-12-19T20:59:18.920Z,40.05
2022-12-19T21:01:59.707Z,42.25
2022-12-19T21:04:33.153Z,39.53
2022-12-19T21:07:01.242Z,40.35
2022-12-19T21:09:32.756Z,40.45
2022-12-19T21:14:40.545Z,41.08
2022-12-19T21:17:07.667Z,40.35
2022-12-19T21:19:35.016Z,38.75
2022-12-19T21:22:12.113Z,39.15
2022-12-19T21:24:40.559Z,41.08
2022-12-19T21:27:11.297Z,38.67
2022-12-19T21:29:38.474Z,42.17
2022-12-19T21:32:05.716Z,42.00
2022-12-19T21:34:32.579Z,41.33
2022-12-19T21:36:59.473Z,38.63
2022-12-19T21:39:27.497Z,40.75
2022-12-19T21:41:55.493Z,40.10
2022-12-19T21:44:22.402Z,40.85
2022-12-19T21:46:50.050Z,43.50
2022-12-19T21:52:32.354Z,41.53
2022-12-19T21:55:00.191Z,40.60
2022-12-19T21:57:29.467Z,40.70
2022-12-19T21:59:58.983Z,41.53
2022-12-19T22:02:26.809Z,43.35
2022-12-19T22:04:58.639Z,43.63
2022-12-19T22:10:14.746Z,42.17
2022-12-19T22:15:40.998Z,42.80
2022-12-19T22:18:11.328Z,45.38
2022-12-19T22:26:31.897Z,42.95
2022-12-19T22:28:59.981Z,41.90
2022-12-19T22:31:30.337Z,42.70
2022-12-19T22:34:18.957Z,41.08
2022-12-19T22:36:49.638Z,48.22
2022-12-19T22:39:21.015Z,48.00
2022-12-19T22:41:55.168Z,40.25
2022-12-19T22:44:24.282Z,40.75
2022-12-19T22:46:52.031Z,44.30
2022-12-19T22:49:19.030Z,42.63
2022-12-19T22:51:46.478Z,43.25
2022-12-19T22:56:59.660Z,40.25
2022-12-19T22:59:26.654Z,41.80
2022-12-19T23:01:54.269Z,42.28
2022-12-19T23:04:22.566Z,41.88
2022-12-19T23:06:56.586Z,42.17
2022-12-19T23:09:24.841Z,42.45
2022-12-19T23:11:51.932Z,42.58
2022-12-19T23:14:20.653Z,41.15
2022-12-19T23:16:48.930Z,43.25
2022-12-19T23:19:17.755Z,41.10
2022-12-19T23:21:46.164Z,40.05
2022-12-19T23:24:14.634Z,38.53
2022-12-19T23:26:42.020Z,40.03
2022-12-19T23:29:14.305Z,39.90
2022-12-19T23:31:44.930Z,38.22
2022-12-19T23:34:13.067Z,38.60
2022-12-19T23:39:31.714Z,40.28
2022-12-19T23:41:59.020Z,39.40
2022-12-19T23:44:26.569Z,40.15
2022-12-19T23:47:02.280Z,42.40
2022-12-19T23:49:30.358Z,40.85
2022-12-19T23:52:00.317Z,40.30
2022-12-19T23:54:30.371Z,39.35
2022-12-19T23:56:58.626Z,40.28
2022-12-19T23:59:26.229Z,41.13
